Kolokani Airport


Codes: GAKN/
Name: Kolokani Airport
City: Kolokani
Country: Mali
Elevation: 1457 ft.

Photos at Kolokani Airport


   Photos courtesy of SpottingLog. You can add your own sightings and photos by signing up for a free trial today.



No photos found.

Weather at Kolokani Airport


Time (UTC)DescriptionTempratureWindCloud coverageVisibilityPressureHumidity
19-Apr-2024 03:00Few Clouds27°C11 mph, NE11%10000m1008hPa12%
19-Apr-2024 06:00Few Clouds27°C11 mph, NE14%10000m1009hPa11%
19-Apr-2024 09:00Clear Sky32°C16 mph, NE6%10000m1010hPa8%
19-Apr-2024 12:00Few Clouds41°C11 mph, E11%10000m1009hPa5%
19-Apr-2024 15:00Broken Clouds42°C9 mph, E63%10000m1005hPa5%
19-Apr-2024 18:00Broken Clouds40°C4 mph, E62%10000m1005hPa6%
19-Apr-2024 21:00Broken Clouds34°C4 mph, E65%10000m1008hPa9%
20-Apr-2024 00:00Broken Clouds31°C7 mph, NE67%10000m1008hPa10%
20-Apr-2024 03:00Broken Clouds29°C7 mph, NE62%10000m1006hPa11%
20-Apr-2024 06:00Scattered Clouds27°C9 mph, NE33%10000m1007hPa11%
20-Apr-2024 09:00Clear Sky35°C9 mph, E6%10000m1008hPa6%
20-Apr-2024 12:00Scattered Clouds41°C11 mph, SE47%10000m1006hPa5%
20-Apr-2024 15:00Few Clouds42°C7 mph, SE15%10000m1003hPa5%
20-Apr-2024 18:00Scattered Clouds40°C2 mph, E43%10000m1002hPa6%
20-Apr-2024 21:00Broken Clouds34°C4 mph, SE53%10000m1005hPa8%
21-Apr-2024 00:00Scattered Clouds32°C4 mph, NW48%10000m1005hPa9%
21-Apr-2024 03:00Scattered Clouds29°C7 mph, W38%10000m1004hPa10%
21-Apr-2024 06:00Scattered Clouds26°C9 mph, SW29%10000m1006hPa24%
21-Apr-2024 09:00Clear Sky34°C18 mph, W5%10000m1007hPa17%
21-Apr-2024 12:00Clear Sky40°C13 mph, W7%10000m1006hPa8%
21-Apr-2024 15:00Clear Sky42°C11 mph, W7%10000m1003hPa7%
21-Apr-2024 18:00Scattered Clouds39°C11 mph, NW46%10000m1002hPa9%
21-Apr-2024 21:00Broken Clouds33°C9 mph, NW73%10000m1004hPa13%
22-Apr-2024 00:00Scattered Clouds30°C9 mph, NW48%10000m1005hPa15%
22-Apr-2024 03:00Scattered Clouds29°C9 mph, NW31%10000m1004hPa16%
22-Apr-2024 06:00Scattered Clouds28°C7 mph, SW37%10000m1006hPa20%
22-Apr-2024 09:00Scattered Clouds34°C13 mph, W34%10000m1008hPa12%
22-Apr-2024 12:00Scattered Clouds39°C13 mph, NW35%10000m1007hPa9%
22-Apr-2024 15:00Clear Sky41°C11 mph, W8%10000m1004hPa9%
22-Apr-2024 18:00Clear Sky39°C9 mph, NW8%10000m1004hPa10%
22-Apr-2024 21:00Clear Sky32°C9 mph, NW3%10000m1006hPa15%
23-Apr-2024 00:00Clear Sky30°C11 mph, NW3%10000m1007hPa18%
23-Apr-2024 03:00Clear Sky28°C9 mph, NW7%10000m1006hPa20%
23-Apr-2024 06:00Clear Sky27°C9 mph, N7%10000m1007hPa20%
23-Apr-2024 09:00Broken Clouds33°C4 mph, NW55%10000m1010hPa12%
23-Apr-2024 12:00Scattered Clouds39°C9 mph, NW32%10000m1008hPa9%
23-Apr-2024 15:00Clear Sky41°C7 mph, NW9%10000m1005hPa8%
23-Apr-2024 18:00Clear Sky40°C7 mph, NW6%10000m1004hPa9%
23-Apr-2024 21:00Clear Sky33°C9 mph, NW6%10000m1007hPa13%
24-Apr-2024 00:00Clear Sky30°C9 mph, NW6%10000m1008hPa15%